createdAt,value
2023-02-08T00:02:27.694Z,8.40
2023-02-08T00:05:49.635Z,9.80
2023-02-08T00:09:11.651Z,8.80
2023-02-08T00:12:34.758Z,8.10
2023-02-08T00:15:56.667Z,9.00
2023-02-08T00:19:18.481Z,8.10
2023-02-08T00:22:40.238Z,8.50
2023-02-08T00:26:02.053Z,9.80
2023-02-08T00:29:23.944Z,7.80
2023-02-08T00:32:45.785Z,9.20
2023-02-08T00:36:08.980Z,8.30
2023-02-08T00:39:31.055Z,9.40
2023-02-08T00:42:53.107Z,7.90
2023-02-08T00:46:14.919Z,10.00
2023-02-08T00:49:36.743Z,9.10
2023-02-08T00:52:59.740Z,8.30
2023-02-08T00:56:23.976Z,8.40
2023-02-08T00:59:46.828Z,8.90
2023-02-08T01:03:10.714Z,9.00
2023-02-08T01:06:32.620Z,9.50
2023-02-08T01:09:54.428Z,8.60
2023-02-08T01:13:16.461Z,8.80
2023-02-08T01:16:38.353Z,9.50
2023-02-08T01:20:00.417Z,9.10
2023-02-08T01:23:22.197Z,8.50
2023-02-08T01:26:44.527Z,8.60
2023-02-08T01:30:06.962Z,9.00
2023-02-08T01:33:30.376Z,9.30
2023-02-08T01:36:52.255Z,9.50
2023-02-08T01:40:14.131Z,7.90
2023-02-08T01:44:02.561Z,9.50
2023-02-08T01:47:26.936Z,8.40
2023-02-08T01:51:04.224Z,8.30
2023-02-08T01:54:28.830Z,8.40
2023-02-08T01:57:53.861Z,9.80
2023-02-08T02:01:16.379Z,8.40
2023-02-08T02:04:38.688Z,8.80
2023-02-08T02:08:01.721Z,7.80
2023-02-08T02:11:24.120Z,10.10
2023-02-08T02:14:47.898Z,8.70
2023-02-08T02:18:10.456Z,8.30
2023-02-08T02:21:50.926Z,8.20
2023-02-08T02:25:37.807Z,8.00
2023-02-08T02:29:37.678Z,8.10
2023-02-08T02:33:15.325Z,7.60
2023-02-08T02:37:03.204Z,8.30
2023-02-08T02:40:35.504Z,7.70
2023-02-08T02:43:59.736Z,7.70
2023-02-08T02:47:42.256Z,9.20
2023-02-08T02:51:17.672Z,8.30
2023-02-08T02:54:49.025Z,8.40
2023-02-08T02:58:12.576Z,8.40
2023-02-08T03:01:35.820Z,9.40
2023-02-08T03:04:57.869Z,8.50
2023-02-08T03:08:31.685Z,8.80
2023-02-08T03:12:07.567Z,8.00
2023-02-08T03:16:07.374Z,8.30
2023-02-08T03:19:41.141Z,9.00
2023-02-08T03:23:10.217Z,8.30
2023-02-08T03:26:36.979Z,7.60
2023-02-08T03:30:29.177Z,7.80
2023-02-08T03:33:57.005Z,7.80
2023-02-08T03:37:25.721Z,8.80
2023-02-08T03:40:50.007Z,8.80
2023-02-08T03:44:34.341Z,8.60
2023-02-08T03:47:57.942Z,8.60
2023-02-08T03:51:22.011Z,7.80
2023-02-08T03:54:53.576Z,8.20
2023-02-08T03:58:28.947Z,8.60
2023-02-08T04:01:55.885Z,9.40
2023-02-08T04:05:18.193Z,8.20
2023-02-08T04:08:45.907Z,7.50
2023-02-08T04:12:07.903Z,7.90
2023-02-08T04:15:29.763Z,8.30
2023-02-08T04:18:51.565Z,8.50
2023-02-08T04:22:13.579Z,8.50
2023-02-08T04:25:35.465Z,8.80
2023-02-08T04:28:57.357Z,7.60
2023-02-08T04:32:19.322Z,7.90
2023-02-08T04:35:42.588Z,8.50
2023-02-08T04:39:04.746Z,8.00
2023-02-08T04:42:26.719Z,8.90
2023-02-08T04:45:50.550Z,8.40
2023-02-08T04:49:12.365Z,8.60
2023-02-08T04:52:34.141Z,9.10
2023-02-08T04:55:55.914Z,7.90
2023-02-08T04:59:18.482Z,8.40
2023-02-08T05:02:40.240Z,8.60
2023-02-08T05:06:02.011Z,7.50
2023-02-08T05:09:23.983Z,7.90
2023-02-08T05:12:46.293Z,8.10
2023-02-08T05:16:08.114Z,8.30
2023-02-08T05:19:30.048Z,7.90
2023-02-08T05:22:51.842Z,8.40
2023-02-08T05:26:13.807Z,8.40
2023-02-08T05:29:35.553Z,9.30
2023-02-08T05:32:57.520Z,9.70
2023-02-08T05:36:20.739Z,8.70
2023-02-08T05:39:42.568Z,9.60
2023-02-08T05:43:04.361Z,8.90
2023-02-08T05:46:26.157Z,10.70
2023-02-08T05:49:47.937Z,8.40
2023-02-08T05:53:10.141Z,9.70
2023-02-08T05:56:32.060Z,9.50
2023-02-08T05:59:53.827Z,9.50
2023-02-08T06:03:15.917Z,9.00
2023-02-08T06:06:37.812Z,9.30
2023-02-08T06:09:59.678Z,9.60
2023-02-08T06:13:21.444Z,9.90
2023-02-08T06:16:43.376Z,10.60
2023-02-08T06:20:05.736Z,9.60
2023-02-08T06:23:27.500Z,10.10
2023-02-08T06:26:49.329Z,11.10
2023-02-08T06:30:11.667Z,10.40
2023-02-08T06:33:33.453Z,10.70
2023-02-08T06:36:55.421Z,10.70
2023-02-08T06:40:17.302Z,11.40
2023-02-08T06:43:40.851Z,11.60
2023-02-08T06:47:03.221Z,11.70
2023-02-08T06:50:25.070Z,10.70
2023-02-08T06:53:47.037Z,11.60
2023-02-08T06:57:09.438Z,12.60
2023-02-08T07:00:31.378Z,12.60
2023-02-08T07:03:53.236Z,11.70
2023-02-08T07:07:16.219Z,11.80
2023-02-08T07:10:40.535Z,12.10
2023-02-08T07:14:02.525Z,11.60
2023-02-08T07:17:24.487Z,11.70
2023-02-08T07:20:46.296Z,11.90
2023-02-08T07:24:08.160Z,12.20
2023-02-08T07:27:29.986Z,11.80
2023-02-08T07:30:51.829Z,10.90
2023-02-08T07:34:13.757Z,11.70
2023-02-08T07:37:35.646Z,12.00
2023-02-08T07:41:05.550Z,11.60
2023-02-08T07:44:27.433Z,11.70
2023-02-08T07:47:49.272Z,11.40
2023-02-08T07:51:12.454Z,11.20
2023-02-08T07:54:34.253Z,11.50
2023-02-08T07:57:57.283Z,11.10
2023-02-08T08:01:22.615Z,10.30
2023-02-08T08:04:44.867Z,9.60
2023-02-08T08:08:06.843Z,10.90
2023-02-08T08:11:28.850Z,10.20
2023-02-08T08:14:53.618Z,10.50
2023-02-08T08:18:15.728Z,10.00
2023-02-08T08:21:37.530Z,10.90
2023-02-08T08:25:00.294Z,10.20
2023-02-08T08:28:22.454Z,9.90
2023-02-08T08:31:44.790Z,9.30
2023-02-08T08:35:07.503Z,10.60
2023-02-08T08:38:29.303Z,10.60
2023-02-08T08:41:51.182Z,10.00
2023-02-08T08:45:13.083Z,10.20
2023-02-08T08:48:37.200Z,10.00
2023-02-08T08:51:59.056Z,10.10
2023-02-08T08:55:20.896Z,10.60
2023-02-08T08:58:43.649Z,9.90
2023-02-08T09:02:05.544Z,11.30
2023-02-08T09:05:30.060Z,10.60
2023-02-08T09:08:55.087Z,10.90
2023-02-08T09:12:16.956Z,9.90
2023-02-08T09:15:40.486Z,11.60
2023-02-08T09:19:03.352Z,11.30
2023-02-08T09:22:25.135Z,12.00
2023-02-08T09:25:48.554Z,12.30
2023-02-08T09:29:11.952Z,11.10
2023-02-08T09:32:34.289Z,11.80
2023-02-08T09:35:56.114Z,12.70
2023-02-08T09:39:21.413Z,11.20
2023-02-08T09:43:09.471Z,11.00
2023-02-08T09:46:35.792Z,12.00
2023-02-08T09:49:59.314Z,11.90
2023-02-08T09:53:30.994Z,12.00
2023-02-08T09:56:53.310Z,11.70
2023-02-08T10:00:22.195Z,12.70
2023-02-08T10:03:45.257Z,12.20
2023-02-08T10:07:09.961Z,11.80
2023-02-08T10:10:55.823Z,12.00
2023-02-08T10:14:48.625Z,12.40
2023-02-08T10:18:29.610Z,13.10
2023-02-08T10:22:08.170Z,12.40
2023-02-08T10:25:42.140Z,12.00
2023-02-08T10:29:19.360Z,11.80
2023-02-08T10:32:51.436Z,11.90
2023-02-08T10:36:17.370Z,12.20
2023-02-08T10:39:39.806Z,12.30
2023-02-08T10:43:29.841Z,12.00
2023-02-08T10:46:55.829Z,12.20
2023-02-08T10:50:32.538Z,11.80
2023-02-08T10:53:54.939Z,12.40
2023-02-08T10:57:29.866Z,11.90
2023-02-08T11:00:52.255Z,12.00
2023-02-08T11:04:15.145Z,11.80
2023-02-08T11:07:37.400Z,12.20
2023-02-08T11:11:07.952Z,11.20
2023-02-08T11:14:47.179Z,11.90
2023-02-08T11:18:20.122Z,11.40
2023-02-08T11:21:42.355Z,10.60
2023-02-08T11:25:07.755Z,11.10
2023-02-08T11:28:31.031Z,10.00
2023-02-08T11:31:56.647Z,10.30
2023-02-08T11:35:22.081Z,9.80
2023-02-08T11:38:44.226Z,8.60
2023-02-08T11:42:06.335Z,8.80
2023-02-08T11:45:31.179Z,9.70
2023-02-08T11:48:53.880Z,9.80
2023-02-08T11:52:32.525Z,9.10
2023-02-08T11:56:18.981Z,8.40
2023-02-08T11:59:40.946Z,8.30
2023-02-08T12:03:25.971Z,7.50
2023-02-08T12:06:50.262Z,8.50
2023-02-08T12:10:33.637Z,7.50
2023-02-08T12:14:15.922Z,7.90
2023-02-08T12:17:47.612Z,7.00
2023-02-08T12:21:19.309Z,6.40
2023-02-08T12:25:15.088Z,6.70
2023-02-08T12:28:46.257Z,6.70
2023-02-08T12:32:26.863Z,6.40
2023-02-08T12:36:03.512Z,6.60
2023-02-08T12:40:10.978Z,6.60
2023-02-08T12:43:50.139Z,5.90
2023-02-08T12:47:17.652Z,3.70
2023-02-08T12:51:05.892Z,3.20
2023-02-08T12:54:59.927Z,3.40
2023-02-08T12:58:27.593Z,3.40
2023-02-08T13:01:54.208Z,3.50
2023-02-08T13:05:20.855Z,3.00
2023-02-08T13:09:01.658Z,2.60
2023-02-08T13:12:31.060Z,3.10
2023-02-08T13:19:41.971Z,2.60
2023-02-08T13:23:16.799Z,2.50
2023-02-08T13:26:39.117Z,2.90
2023-02-08T13:30:01.471Z,2.60
2023-02-08T13:34:01.192Z,3.00
2023-02-08T13:37:27.801Z,2.70
2023-02-08T13:41:03.006Z,3.20
2023-02-08T13:44:37.659Z,3.20
2023-02-08T13:48:02.505Z,2.90
2023-02-08T13:51:33.342Z,2.70
2023-02-08T13:55:38.348Z,3.00
2023-02-08T13:59:01.394Z,2.60
2023-02-08T14:02:27.179Z,2.50
2023-02-08T14:05:50.615Z,2.40
2023-02-08T14:09:15.379Z,2.50
2023-02-08T14:13:21.701Z,3.00
2023-02-08T14:20:36.497Z,3.60
2023-02-08T14:24:07.273Z,3.20
2023-02-08T14:27:47.623Z,3.80
2023-02-08T14:31:11.079Z,3.70
2023-02-08T14:34:39.164Z,3.60
2023-02-08T14:38:19.139Z,3.60
2023-02-08T14:42:00.362Z,4.40
2023-02-08T14:45:37.208Z,3.80
2023-02-08T14:49:03.573Z,5.10
2023-02-08T14:52:25.776Z,4.80
2023-02-08T14:56:03.660Z,5.20
2023-02-08T14:59:28.565Z,5.60
2023-02-08T15:02:50.496Z,5.00
2023-02-08T15:06:39.961Z,5.10
2023-02-08T15:10:10.036Z,5.00
2023-02-08T15:13:31.985Z,5.10
2023-02-08T15:16:55.734Z,5.40
2023-02-08T15:20:29.323Z,4.90
2023-02-08T15:24:22.559Z,5.50
2023-02-08T15:27:52.803Z,5.90
2023-02-08T15:31:17.400Z,6.40
2023-02-08T15:34:47.058Z,6.90
2023-02-08T15:38:16.999Z,6.70
2023-02-08T15:41:39.019Z,6.30
2023-02-08T15:45:03.132Z,6.60
2023-02-08T15:48:26.229Z,6.20
2023-02-08T15:51:48.551Z,5.90
2023-02-08T15:55:16.948Z,5.70
2023-02-08T15:58:41.525Z,6.00
2023-02-08T16:02:24.512Z,6.20
2023-02-08T16:05:58.223Z,6.50
2023-02-08T16:09:23.096Z,6.60
2023-02-08T16:12:54.583Z,5.60
2023-02-08T16:16:16.764Z,5.90
2023-02-08T16:19:51.306Z,6.50
2023-02-08T16:23:27.650Z,6.50
2023-02-08T16:27:05.289Z,6.90
2023-02-08T16:30:27.280Z,7.20
2023-02-08T16:34:06.993Z,6.60
2023-02-08T16:37:31.870Z,6.10
2023-02-08T16:40:59.469Z,7.40
2023-02-08T16:44:33.394Z,6.70
2023-02-08T16:47:58.434Z,6.60
2023-02-08T16:51:25.300Z,6.30
2023-02-08T16:54:47.922Z,6.40
2023-02-08T16:58:14.054Z,6.70
2023-02-08T17:01:36.426Z,6.40
2023-02-08T17:04:58.880Z,4.60
2023-02-08T17:08:25.281Z,5.80
2023-02-08T17:11:48.320Z,6.50
2023-02-08T17:15:10.258Z,5.90
2023-02-08T17:18:34.608Z,6.60
2023-02-08T17:21:56.818Z,7.50
2023-02-08T17:25:20.202Z,7.00
2023-02-08T17:28:43.561Z,6.80
2023-02-08T17:32:06.378Z,6.90
2023-02-08T17:35:28.871Z,7.20
2023-02-08T17:38:52.263Z,8.00
2023-02-08T17:42:14.118Z,8.00
2023-02-08T17:45:39.372Z,7.90
2023-02-08T17:49:01.958Z,8.30
2023-02-08T17:52:23.969Z,7.70
2023-02-08T17:55:46.379Z,8.40
2023-02-08T17:59:11.753Z,7.50
2023-02-08T18:02:33.683Z,8.70
2023-02-08T18:06:00.040Z,8.80
2023-02-08T18:09:21.849Z,9.50
2023-02-08T18:12:43.758Z,9.30
2023-02-08T18:16:10.337Z,10.50
2023-02-08T18:19:33.110Z,9.00
2023-02-08T18:22:54.920Z,9.60
2023-02-08T18:26:19.683Z,10.80
2023-02-08T18:29:41.490Z,10.30
2023-02-08T18:33:03.332Z,10.40
2023-02-08T18:36:25.188Z,10.40
2023-02-08T18:39:47.082Z,10.30
2023-02-08T18:43:08.963Z,13.40
2023-02-08T18:46:30.967Z,12.90
2023-02-08T18:49:55.100Z,11.90
2023-02-08T18:53:17.088Z,15.20
2023-02-08T18:56:39.542Z,12.80
2023-02-08T19:00:01.397Z,13.90
2023-02-08T19:03:23.396Z,12.70
2023-02-08T19:06:47.889Z,12.30
2023-02-08T19:10:09.827Z,11.40
2023-02-08T19:13:32.273Z,13.00
2023-02-08T19:16:54.118Z,11.40
2023-02-08T19:20:16.488Z,12.70
2023-02-08T19:23:38.451Z,12.70
2023-02-08T19:27:00.280Z,13.10
2023-02-08T19:30:22.360Z,12.80
2023-02-08T19:33:46.584Z,12.60
2023-02-08T19:37:08.400Z,14.50
2023-02-08T19:40:30.313Z,14.30
2023-02-08T19:43:52.617Z,12.70
2023-02-08T19:47:14.423Z,12.90
2023-02-08T19:50:36.237Z,14.60
2023-02-08T19:54:00.930Z,13.60
2023-02-08T19:57:25.967Z,13.30
2023-02-08T20:00:47.972Z,14.40
2023-02-08T20:04:09.802Z,13.10
2023-02-08T20:07:31.737Z,13.80
2023-02-08T20:10:54.480Z,13.50
2023-02-08T20:14:16.684Z,15.00
2023-02-08T20:17:38.748Z,14.40
2023-02-08T20:21:02.086Z,14.10
2023-02-08T20:24:24.316Z,15.20
2023-02-08T20:27:46.181Z,15.30
2023-02-08T20:31:09.794Z,15.50
2023-02-08T20:34:31.588Z,16.10
2023-02-08T20:37:53.340Z,14.90
2023-02-08T20:41:16.693Z,16.00
2023-02-08T20:44:38.448Z,17.40
2023-02-08T20:48:00.619Z,16.40
2023-02-08T20:51:27.999Z,16.90
2023-02-08T20:54:49.835Z,18.60
2023-02-08T20:58:14.217Z,18.40
2023-02-08T21:01:37.072Z,18.50
2023-02-08T21:04:59.073Z,18.40
2023-02-08T21:08:20.954Z,17.30
2023-02-08T21:11:46.192Z,17.90
2023-02-08T21:15:09.468Z,17.80
2023-02-08T21:18:32.108Z,18.00
2023-02-08T21:21:57.181Z,17.90
2023-02-08T21:25:19.102Z,18.80
2023-02-08T21:28:41.663Z,18.00
2023-02-08T21:32:04.009Z,17.40
2023-02-08T21:35:26.038Z,16.20
2023-02-08T21:38:48.110Z,18.80
2023-02-08T21:42:10.460Z,18.00
2023-02-08T21:45:33.698Z,17.70
2023-02-08T21:49:15.637Z,17.40
2023-02-08T21:52:56.117Z,17.00
2023-02-08T21:56:18.347Z,17.20
2023-02-08T21:59:43.016Z,18.10
2023-02-08T22:03:05.368Z,17.20
2023-02-08T22:06:27.402Z,18.50
2023-02-08T22:09:49.394Z,18.60
2023-02-08T22:13:11.302Z,17.70
2023-02-08T22:16:33.165Z,17.10
2023-02-08T22:19:55.023Z,17.70
2023-02-08T22:23:16.820Z,18.50
2023-02-08T22:26:38.632Z,18.10
2023-02-08T22:30:00.513Z,18.30
2023-02-08T22:33:22.407Z,18.10
2023-02-08T22:36:44.270Z,19.50
2023-02-08T22:40:08.115Z,17.70
2023-02-08T22:43:29.982Z,18.30
2023-02-08T22:46:54.009Z,19.70
2023-02-08T22:50:16.224Z,19.70
2023-02-08T22:53:38.149Z,18.40
2023-02-08T22:57:00.442Z,18.70
2023-02-08T23:00:24.776Z,20.00
2023-02-08T23:03:46.649Z,20.50
2023-02-08T23:07:08.524Z,21.00
2023-02-08T23:10:30.285Z,18.60
2023-02-08T23:13:52.209Z,21.50
2023-02-08T23:17:14.106Z,20.50
2023-02-08T23:20:41.390Z,20.40
2023-02-08T23:24:03.375Z,21.00
2023-02-08T23:27:25.164Z,20.20
2023-02-08T23:30:47.227Z,20.20
2023-02-08T23:34:11.557Z,22.70
2023-02-08T23:37:33.342Z,21.50
2023-02-08T23:40:55.117Z,21.70
2023-02-08T23:44:16.918Z,21.10
2023-02-08T23:47:39.710Z,23.10
2023-02-08T23:51:04.038Z,21.70
2023-02-08T23:54:25.976Z,24.10
2023-02-08T23:57:50.738Z,24.70
